Time;durP1;ratioP1;P1;durP2;ratioP2;P2;SDS_P1;SDS_P2;PMS_P1;PMS_P2;Temp;Humidity;BMP_temperature;BMP_pressure;BME280_temperature;BME280_humidity;BME280_pressure;Samples;Min_cycle;Max_cycle;Signal;HPM_P1;HPM_P2
2021/03/08 00:01:26;;;;;;;8.00;7.25;;;;;;;4.26;48.81;100688.31;10269322;28;20094;-60
2021/03/08 00:06:27;;;;;;;7.07;6.38;;;;;;;4.18;48.15;100680.78;10266354;28;20059;-60
2021/03/08 00:11:29;;;;;;;6.90;6.15;;;;;;;4.08;48.39;100679.50;10265735;28;20170;-61
2021/03/08 00:16:30;;;;;;;6.55;5.95;;;;;;;4.13;47.96;100688.06;10269591;28;20102;-61
2021/03/08 00:21:31;;;;;;;7.85;7.07;;;;;;;4.09;48.63;100683.84;10264277;28;20051;-60
2021/03/08 00:26:32;;;;;;;7.70;7.00;;;;;;;4.00;48.26;100677.22;10274127;28;20078;-59
2021/03/08 00:31:49;;;;;;;7.97;7.28;;;;;;;3.97;48.60;100671.25;10266951;28;20055;-60
2021/03/08 00:36:50;;;;;;;7.20;6.50;;;;;;;3.96;49.05;100685.34;10266048;28;20109;-59
2021/03/08 00:41:52;;;;;;;6.88;6.28;;;;;;;3.96;48.71;100680.91;10261635;28;20130;-59
2021/03/08 00:46:53;;;;;;;7.45;6.75;;;;;;;3.84;48.78;100682.38;10263080;28;20054;-59
2021/03/08 00:51:54;;;;;;;7.38;6.78;;;;;;;3.80;49.42;100669.38;10264309;28;20054;-59
2021/03/08 00:56:56;;;;;;;9.15;7.40;;;;;;;3.73;49.42;100679.34;10265004;28;20783;-64
2021/03/08 01:02:08;;;;;;;7.43;6.47;;;;;;;3.76;49.33;100673.09;10263237;28;20046;-59
2021/03/08 01:07:10;;;;;;;7.72;6.82;;;;;;;3.61;49.28;100672.00;10263714;28;20054;-60
2021/03/08 01:12:12;;;;;;;7.10;6.40;;;;;;;3.45;49.98;100659.53;10261051;28;20137;-59
2021/03/08 01:17:14;;;;;;;6.75;6.18;;;;;;;3.42;50.05;100674.59;10262111;28;20098;-60
2021/03/08 01:22:15;;;;;;;5.85;5.45;;;;;;;3.42;49.52;100674.59;10263814;28;20126;-59
2021/03/08 01:27:16;;;;;;;6.22;5.70;;;;;;;3.31;49.98;100665.38;10260367;28;20094;-59
2021/03/08 01:32:27;;;;;;;6.90;6.13;;;;;;;3.40;49.68;100658.88;10262657;28;21942;-59
2021/03/08 01:37:29;;;;;;;6.60;6.10;;;;;;;3.46;49.94;100669.13;10262881;28;20051;-62
2021/03/08 01:42:30;;;;;;;8.07;7.38;;;;;;;3.41;50.16;100665.84;10261370;28;20063;-59
2021/03/08 01:47:31;;;;;;;7.10;6.43;;;;;;;3.47;50.08;100662.94;10262872;28;20054;-59
2021/03/08 01:52:33;;;;;;;6.90;6.28;;;;;;;3.46;50.02;100655.13;10260270;28;20050;-59
2021/03/08 01:57:36;;;;;;;6.57;5.97;;;;;;;3.63;50.74;100651.72;10267105;28;20078;-60
2021/03/08 02:02:54;;;;;;;7.68;6.97;;;;;;;3.62;50.12;100650.00;10272381;28;20055;-58
2021/03/08 02:07:57;;;;;;;7.05;6.35;;;;;;;3.63;49.96;100641.19;10336991;22;20067;-67
2021/03/08 02:13:07;;;;;;;8.50;7.70;;;;;;;3.56;50.36;100655.53;10325636;28;20056;-67
2021/03/08 02:18:08;;;;;;;7.75;7.05;;;;;;;3.40;50.94;100656.22;10276225;28;20043;-65
2021/03/08 02:23:22;;;;;;;8.48;7.68;;;;;;;3.35;50.83;100653.81;10281427;28;20149;-67
2021/03/08 02:28:45;;;;;;;9.23;8.32;;;;;;;3.38;51.20;100658.09;10273235;28;20043;-66
2021/03/08 02:33:54;;;;;;;9.40;8.63;;;;;;;3.11;51.68;100634.69;10273108;28;20129;-66
2021/03/08 02:39:01;;;;;;;8.90;8.10;;;;;;;3.19;51.49;100653.63;10288409;28;20130;-65
2021/03/08 02:44:07;;;;;;;9.38;8.48;;;;;;;3.18;51.75;100636.13;10277969;28;20130;-64
2021/03/08 02:49:16;;;;;;;9.68;8.77;;;;;;;3.44;51.20;100647.28;10276408;28;20047;-67
2021/03/08 02:54:21;;;;;;;10.75;9.65;;;;;;;3.27;51.74;100647.16;10289140;28;20113;-67
2021/03/08 02:59:23;;;;;;;9.98;8.98;;;;;;;3.01;52.13;100636.84;10276453;28;20047;-66
2021/03/08 03:04:25;;;;;;;9.73;8.73;;;;;;;3.29;52.18;100643.56;10276888;28;20064;-67
2021/03/08 03:09:28;;;;;;;10.13;9.05;;;;;;;3.18;52.42;100630.88;10277704;28;20085;-66
2021/03/08 03:14:32;;;;;;;9.63;8.73;;;;;;;3.04;52.76;100641.13;10271044;28;20050;-66
2021/03/08 03:19:38;;;;;;;10.88;9.40;;;;;;;3.17;53.27;100634.41;10275145;28;20481;-66
2021/03/08 03:24:40;;;;;;;9.57;8.45;;;;;;;3.27;53.40;100634.00;10271568;28;20154;-66
2021/03/08 03:29:45;;;;;;;10.40;9.40;;;;;;;3.25;53.23;100625.34;10273875;28;20051;-68
2021/03/08 03:34:48;;;;;;;9.70;8.75;;;;;;;3.08;53.99;100626.94;10276229;28;20058;-65
2021/03/08 03:39:49;;;;;;;10.02;8.93;;;;;;;3.01;53.25;100644.75;10299705;28;20138;-66
2021/03/08 03:44:52;;;;;;;9.63;8.73;;;;;;;3.21;52.74;100650.06;10279421;28;20576;-67
2021/03/08 03:49:53;;;;;;;10.55;9.45;;;;;;;3.27;52.83;100662.94;10276085;28;20417;-67
2021/03/08 03:54:54;;;;;;;9.75;8.85;;;;;;;3.05;53.39;100660.38;10271532;28;20086;-65
2021/03/08 03:59:57;;;;;;;9.27;8.48;;;;;;;3.04;53.40;100680.59;10271235;28;20054;-65
2021/03/08 04:05:00;;;;;;;11.02;10.02;;;;;;;3.01;53.59;100667.56;10290289;28;20106;-68
2021/03/08 04:10:03;;;;;;;12.25;9.77;;;;;;;2.80;54.16;100671.94;10295950;28;20560;-66
2021/03/08 04:15:08;;;;;;;9.25;8.45;;;;;;;2.58;54.26;100657.06;10281037;28;20074;-65
2021/03/08 04:20:16;;;;;;;10.65;8.57;;;;;;;2.16;55.65;100670.13;10279894;28;20047;-65
2021/03/08 04:25:20;;;;;;;11.73;8.90;;;;;;;2.49;55.04;100665.31;10282467;28;20082;-66
2021/03/08 04:30:21;;;;;;;9.52;8.55;;;;;;;2.60;54.78;100680.66;10279815;28;20116;-65
2021/03/08 04:35:26;;;;;;;9.35;8.45;;;;;;;2.57;55.32;100683.41;10292741;28;20172;-67
2021/03/08 04:40:27;;;;;;;8.57;7.88;;;;;;;2.67;54.95;100690.00;10278801;28;20051;-66
2021/03/08 04:45:30;;;;;;;9.50;8.63;;;;;;;2.48;55.25;100677.59;10271647;28;20114;-67
2021/03/08 04:50:32;;;;;;;9.85;8.80;;;;;;;2.60;54.96;100693.81;10294040;28;20459;-66
2021/03/08 04:55:36;;;;;;;10.20;9.20;;;;;;;2.57;54.41;100696.56;10278892;28;20051;-64
2021/03/08 05:00:37;;;;;;;11.05;9.85;;;;;;;2.67;54.45;100690.00;10277165;28;20047;-65
2021/03/08 05:05:39;;;;;;;11.18;10.10;;;;;;;2.66;55.05;100690.94;10275830;28;20580;-65
2021/03/08 05:10:41;;;;;;;11.82;10.35;;;;;;;2.57;54.89;100689.53;10283876;28;20105;-65
2021/03/08 05:15:43;;;;;;;12.23;10.95;;;;;;;2.30;55.46;100683.59;10278201;28;20446;-64
2021/03/08 05:20:46;;;;;;;11.38;10.18;;;;;;;2.27;55.46;100683.72;10276461;28;20484;-66
2021/03/08 05:25:47;;;;;;;11.27;10.07;;;;;;;1.94;55.56;100660.47;10287819;28;20074;-63
2021/03/08 05:30:53;;;;;;;10.50;9.55;;;;;;;2.23;56.77;100708.38;10274452;28;20063;-65
2021/03/08 05:35:58;;;;;;;12.13;10.88;;;;;;;2.19;56.32;100704.16;10282320;28;20061;-64
2021/03/08 05:41:16;;;;;;;12.55;11.23;;;;;;;2.20;56.33;100713.75;10280301;28;20556;-63
2021/03/08 05:46:40;;;;;;;12.23;10.90;;;;;;;2.19;56.39;100712.03;10299811;28;20047;-66
2021/03/08 05:52:06;;;;;;;13.05;11.68;;;;;;;2.17;56.53;100719.97;10286492;28;20073;-64
2021/03/08 05:57:18;;;;;;;12.32;11.13;;;;;;;2.17;56.31;100722.59;10284210;28;20137;-63
2021/03/08 06:02:39;;;;;;;13.13;11.73;;;;;;;2.24;56.55;100725.88;10279416;28;20050;-65
2021/03/08 06:08:18;;;;;;;12.30;11.20;;;;;;;2.21;56.78;100731.25;10271326;28;20096;-64
2021/03/08 06:13:22;;;;;;;13.27;11.90;;;;;;;2.21;56.70;100720.72;10276594;28;20376;-64
2021/03/08 06:18:31;;;;;;;14.85;13.30;;;;;;;2.21;56.78;100726.00;10271160;28;20066;-63
2021/03/08 06:23:34;;;;;;;15.43;12.90;;;;;;;2.14;56.69;100737.63;10287827;28;20224;-63
2021/03/08 06:28:36;;;;;;;15.13;13.48;;;;;;;2.18;56.38;100736.59;10275478;28;20043;-64
2021/03/08 06:33:38;;;;;;;15.70;14.05;;;;;;;2.26;57.17;100739.78;10274176;28;20161;-61
2021/03/08 06:38:39;;;;;;;15.75;14.07;;;;;;;2.26;56.83;100734.53;10275059;28;20075;-63
2021/03/08 06:43:41;;;;;;;16.05;14.43;;;;;;;2.40;56.80;100752.38;10286043;28;20066;-67
2021/03/08 06:48:43;;;;;;;17.48;15.60;;;;;;;2.64;55.96;100758.47;10274827;28;20142;-64
2021/03/08 06:53:46;;;;;;;17.52;13.70;;;;;;;2.80;55.93;100748.19;10288393;28;20054;-65
2021/03/08 06:59:02;;;;;;;15.75;13.88;;;;;;;3.22;55.12;100767.56;10270906;28;20035;-66
2021/03/08 07:04:11;;;;;;;17.45;14.27;;;;;;;3.41;54.68;100767.63;10266372;28;20046;-66
2021/03/08 07:09:13;;;;;;;16.08;13.02;;;;;;;3.59;53.88;100772.13;10289304;28;20136;-65
2021/03/08 07:14:22;;;;;;;17.13;13.68;;;;;;;3.57;53.88;100778.34;10287402;28;20077;-64
2021/03/08 07:19:25;;;;;;;20.15;14.48;;;;;;;3.62;53.15;100781.63;10269887;28;20433;-64
2021/03/08 07:24:26;;;;;;;17.13;14.25;;;;;;;3.27;54.42;100792.75;10276097;28;20679;-65
2021/03/08 07:29:27;;;;;;;15.77;14.27;;;;;;;3.24;54.58;100781.50;10275542;28;20417;-66
2021/03/08 07:34:45;;;;;;;15.25;13.75;;;;;;;3.58;53.25;100801.13;10274997;28;20066;-65
2021/03/08 07:39:53;;;;;;;14.48;13.02;;;;;;;3.71;53.63;100800.53;10273937;28;20093;-65
2021/03/08 07:44:54;;;;;;;13.82;12.52;;;;;;;3.85;53.21;100805.19;10288267;28;20117;-65
2021/03/08 07:49:55;;;;;;;13.70;12.30;;;;;;;3.75;52.23;100788.09;10289454;28;20466;-65
2021/03/08 07:54:59;;;;;;;14.35;12.82;;;;;;;3.88;52.59;100804.22;10276966;28;20082;-65
2021/03/08 08:00:01;;;;;;;16.50;13.93;;;;;;;4.11;52.21;100811.09;10303633;28;20054;-65
2021/03/08 08:05:03;;;;;;;15.63;14.05;;;;;;;4.33;52.35;100804.88;10328281;28;20314;-65
2021/03/08 08:10:06;;;;;;;14.88;13.27;;;;;;;4.64;51.12;100799.03;10291238;28;20046;-66
2021/03/08 08:15:10;;;;;;;15.15;13.55;;;;;;;4.84;50.43;100803.34;10274599;28;20049;-66
2021/03/08 08:20:13;;;;;;;17.08;13.60;;;;;;;4.95;50.32;100787.88;10284349;28;20067;-67
2021/03/08 08:25:15;;;;;;;15.95;14.30;;;;;;;4.90;50.28;100795.16;10268091;28;20065;-66
2021/03/08 08:30:20;;;;;;;15.57;14.07;;;;;;;4.99;50.06;100798.28;10321542;23;20136;-69
2021/03/08 08:35:33;;;;;;;18.17;14.20;;;;;;;5.18;50.19;100801.72;10343941;28;20081;-68
2021/03/08 08:40:36;;;;;;;17.38;15.05;;;;;;;5.25;49.63;100804.91;10361695;28;20050;-68
2021/03/08 08:45:38;;;;;;;16.17;14.52;;;;;;;5.42;49.31;100822.53;10405136;28;20063;-67
2021/03/08 08:50:58;;;;;;;19.95;14.45;;;;;;;5.40;49.40;100801.50;10408082;28;20052;-70
2021/03/08 08:55:59;;;;;;;16.60;14.88;;;;;;;5.45;49.45;100802.13;10406379;28;20042;-70
2021/03/08 09:01:10;;;;;;;16.20;14.45;;;;;;;5.59;49.04;100811.16;10388916;28;20105;-68
2021/03/08 09:06:39;;;;;;;20.98;15.85;;;;;;;5.61;49.05;100814.56;10374914;28;20049;-69
2021/03/08 09:11:52;;;;;;;16.83;15.23;;;;;;;5.66;49.23;100813.41;10388943;28;20156;-69
2021/03/08 09:17:06;;;;;;;20.35;15.90;;;;;;;5.69;48.79;100814.16;10392555;28;20075;-69
2021/03/08 09:22:20;;;;;;;18.98;14.95;;;;;;;5.80;49.12;100811.84;10387115;28;20056;-69
2021/03/08 09:27:33;;;;;;;17.83;14.55;;;;;;;5.78;49.00;100803.13;10384551;28;20153;-69
2021/03/08 09:32:35;;;;;;;18.52;14.02;;;;;;;5.98;48.57;100816.19;10403892;28;20046;-69
2021/03/08 09:37:38;;;;;;;18.77;14.48;;;;;;;5.83;49.03;100814.31;10384008;28;20455;-69
2021/03/08 09:42:40;;;;;;;18.30;15.13;;;;;;;6.05;48.68;100815.88;10395646;28;20041;-70
2021/03/08 09:47:41;;;;;;;17.25;15.20;;;;;;;5.96;48.40;100818.03;10426001;28;20073;-68
2021/03/08 09:52:53;;;;;;;16.65;14.77;;;;;;;5.80;49.27;100817.13;10431715;28;20041;-69
2021/03/08 09:57:55;;;;;;;17.30;15.50;;;;;;;5.94;48.87;100825.16;10417923;28;20115;-70
2021/03/08 10:03:02;;;;;;;19.95;15.23;;;;;;;6.12;48.48;100817.25;10390052;28;20589;-70
2021/03/08 10:08:04;;;;;;;20.05;15.30;;;;;;;6.07;48.93;100814.84;10374264;28;20124;-69
2021/03/08 10:13:06;;;;;;;17.58;14.15;;;;;;;6.44;48.07;100823.47;10377586;28;20045;-68
2021/03/08 10:18:08;;;;;;;18.90;14.95;;;;;;;6.66;47.37;100820.50;10377760;28;20075;-69
2021/03/08 10:23:26;;;;;;;19.75;15.63;;;;;;;6.86;46.91;100829.13;10379790;28;20127;-69
2021/03/08 10:28:41;;;;;;;17.10;15.20;;;;;;;6.76;47.20;100817.38;10386133;28;20054;-69
2021/03/08 10:33:44;;;;;;;16.52;14.68;;;;;;;7.03;46.37;100821.09;10386228;28;20629;-68
2021/03/08 10:38:52;;;;;;;21.05;15.95;;;;;;;6.99;46.41;100816.91;10383134;28;20081;-69
2021/03/08 10:43:54;;;;;;;18.77;15.70;;;;;;;7.11;46.64;100814.50;10399338;28;20069;-68
2021/03/08 10:49:01;;;;;;;18.92;15.60;;;;;;;7.35;46.38;100802.50;10385454;28;20060;-69
2021/03/08 10:54:02;;;;;;;19.52;17.00;;;;;;;7.42;46.11;100801.19;10385269;28;20133;-71
2021/03/08 10:59:30;;;;;;;17.48;15.57;;;;;;;7.57;45.81;100799.44;10384305;28;20064;-68
2021/03/08 11:04:32;;;;;;;18.27;15.98;;;;;;;7.74;45.66;100793.13;10382771;28;20045;-69
2021/03/08 11:09:37;;;;;;;18.10;15.82;;;;;;;7.82;45.17;100797.13;10385316;28;20147;-68
2021/03/08 11:14:55;;;;;;;19.17;15.82;;;;;;;7.73;45.80;100793.22;10381393;28;20057;-69
2021/03/08 11:20:12;;;;;;;19.55;17.38;;;;;;;7.91;45.23;100797.44;10383447;28;20049;-70
2021/03/08 11:25:27;;;;;;;17.35;15.52;;;;;;;7.87;45.25;100781.81;10381875;28;20084;-71
2021/03/08 11:30:32;;;;;;;18.33;16.08;;;;;;;7.80;45.70;100789.25;10396996;28;20113;-69
2021/03/08 11:35:36;;;;;;;17.70;15.90;;;;;;;8.04;44.91;100786.91;10382430;28;20099;-69
2021/03/08 11:40:46;;;;;;;17.10;15.23;;;;;;;7.82;45.74;100786.53;10381012;28;20060;-72
2021/03/08 11:45:52;;;;;;;16.63;15.02;;;;;;;8.34;44.96;100782.47;10382004;28;20103;-70
2021/03/08 11:50:55;;;;;;;16.08;14.15;;;;;;;8.58;44.41;100769.47;10377652;28;20408;-69
2021/03/08 11:55:56;;;;;;;16.23;14.20;;;;;;;8.28;44.70;100773.09;10375215;28;20053;-69
2021/03/08 12:00:58;;;;;;;18.63;15.25;;;;;;;8.30;44.84;100752.63;10379586;28;20076;-70
2021/03/08 12:06:00;;;;;;;20.83;15.02;;;;;;;8.32;44.53;100758.69;10379457;28;20128;-69
2021/03/08 12:11:04;;;;;;;16.42;13.50;;;;;;;8.43;44.71;100745.59;10378848;28;20050;-70
2021/03/08 12:16:06;;;;;;;16.60;14.07;;;;;;;8.13;45.23;100754.53;10378487;28;20120;-71
2021/03/08 12:21:07;;;;;;;17.52;13.90;;;;;;;8.59;44.79;100749.97;10407167;28;20560;-68
2021/03/08 12:26:08;;;;;;;16.80;14.75;;;;;;;8.88;44.40;100741.91;10387175;28;25359;-71
2021/03/08 12:31:10;;;;;;;16.52;14.57;;;;;;;8.90;43.86;100732.88;10383092;28;20125;-69
2021/03/08 12:36:13;;;;;;;15.43;13.68;;;;;;;9.07;43.34;100733.56;10401526;28;20100;-70
2021/03/08 12:41:20;;;;;;;15.82;14.10;;;;;;;9.14;43.34;100730.41;10398033;28;20138;-68
2021/03/08 12:46:23;;;;;;;16.10;13.80;;;;;;;9.19;42.94;100730.94;10392842;28;20045;-71
2021/03/08 12:51:25;;;;;;;15.57;13.43;;;;;;;9.26;43.05;100719.91;10393231;28;20522;-69
2021/03/08 12:56:26;;;;;;;13.95;12.25;;;;;;;9.27;43.01;100724.28;10377804;28;20069;-69
2021/03/08 13:01:27;;;;;;;14.77;13.13;;;;;;;9.27;43.28;100718.97;10377031;28;20050;-69
2021/03/08 13:06:30;;;;;;;15.63;12.88;;;;;;;9.20;43.62;100724.69;10374480;28;20104;-69
2021/03/08 13:11:37;;;;;;;14.73;11.57;;;;;;;9.23;43.79;100718.28;10375186;28;20147;-68
2021/03/08 13:16:38;;;;;;;12.98;11.05;;;;;;;9.34;43.51;100720.25;10382805;28;20046;-68
2021/03/08 13:21:41;;;;;;;13.80;12.40;;;;;;;9.40;43.14;100703.88;10377830;28;20135;-68
2021/03/08 13:26:42;;;;;;;15.40;12.40;;;;;;;9.34;43.29;100705.16;10380332;28;20052;-69
2021/03/08 13:31:44;;;;;;;15.60;13.00;;;;;;;9.32;43.48;100711.50;10377784;28;20119;-70
2021/03/08 13:36:46;;;;;;;13.50;12.10;;;;;;;9.32;43.52;100706.19;10384179;28;20042;-70
2021/03/08 13:42:07;;;;;;;12.98;11.27;;;;;;;9.34;43.04;100699.84;10374915;28;20052;-70
2021/03/08 13:47:09;;;;;;;13.95;11.95;;;;;;;9.24;43.52;100697.91;10377976;28;20051;-69
2021/03/08 13:52:10;;;;;;;15.77;11.68;;;;;;;9.38;43.20;100689.84;10381367;28;20065;-70
2021/03/08 13:57:12;;;;;;;13.52;11.18;;;;;;;9.65;42.94;100686.22;10379973;28;20077;-69
2021/03/08 14:02:13;;;;;;;13.63;12.18;;;;;;;9.73;42.92;100679.44;10383819;28;20575;-69
2021/03/08 14:07:15;;;;;;;17.35;13.05;;;;;;;9.97;42.42;100683.09;10385193;28;20401;-69
2021/03/08 14:12:31;;;;;;;14.13;12.10;;;;;;;10.17;42.10;100682.53;10389889;28;20130;-68
2021/03/08 14:17:33;;;;;;;14.25;12.10;;;;;;;10.50;41.31;100681.09;10393769;28;20079;-70
2021/03/08 14:22:35;;;;;;;13.30;10.73;;;;;;;10.88;40.80;100684.53;10394002;28;20128;-69
2021/03/08 14:27:36;;;;;;;12.32;10.60;;;;;;;10.97;40.48;100675.84;10387405;28;20606;-68
2021/03/08 14:32:37;;;;;;;11.93;9.63;;;;;;;10.83;40.49;100673.38;10380451;28;20119;-69
2021/03/08 14:37:56;;;;;;;11.45;9.68;;;;;;;9.72;42.69;100671.56;10386668;28;20574;-69
2021/03/08 14:42:58;;;;;;;12.35;10.30;;;;;;;9.78;43.69;100673.78;10373543;23;20096;-65
2021/03/08 14:47:59;;;;;;;15.25;11.48;;;;;;;9.76;43.47;100673.06;10345849;28;20057;-65
2021/03/08 14:53:01;;;;;;;12.98;10.48;;;;;;;9.76;43.69;100673.06;10347648;28;20500;-66
2021/03/08 14:58:03;;;;;;;12.45;11.15;;;;;;;9.59;44.02;100660.94;10346773;28;20182;-66
2021/03/08 15:03:04;;;;;;;11.60;10.25;;;;;;;9.53;44.72;100667.53;10338976;28;20058;-64
2021/03/08 15:08:06;;;;;;;11.50;9.52;;;;;;;9.53;44.67;100661.34;10344683;28;20147;-64
2021/03/08 15:13:18;;;;;;;10.93;9.82;;;;;;;9.14;45.03;100632.16;10345914;28;20056;-64
2021/03/08 15:18:19;;;;;;;11.30;9.38;;;;;;;9.12;45.31;100630.53;10348126;28;20065;-64
2021/03/08 15:23:20;;;;;;;12.70;10.93;;;;;;;9.27;45.31;100655.19;10348867;28;20050;-66
2021/03/08 15:28:23;;;;;;;10.82;9.32;;;;;;;9.14;45.22;100666.66;10351075;28;20056;-64
2021/03/08 15:33:25;;;;;;;11.65;10.27;;;;;;;8.88;46.27;100649.00;10377380;28;20459;-64
2021/03/08 15:38:27;;;;;;;13.40;10.30;;;;;;;8.72;46.72;100659.75;10361845;28;20050;-64
2021/03/08 15:43:41;;;;;;;14.30;12.32;;;;;;;8.68;46.90;100653.81;10345684;28;20117;-65
2021/03/08 15:48:43;;;;;;;12.85;11.55;;;;;;;8.66;47.10;100642.44;10340933;28;20066;-64
2021/03/08 15:53:45;;;;;;;13.88;11.00;;;;;;;8.52;47.63;100643.34;10336583;28;20499;-65
2021/03/08 15:58:46;;;;;;;13.43;11.45;;;;;;;8.53;47.74;100633.59;10342717;28;20118;-63
2021/03/08 16:03:48;;;;;;;11.77;10.57;;;;;;;8.59;47.70;100638.50;10339031;28;20052;-64
2021/03/08 16:08:49;;;;;;;13.38;10.98;;;;;;;8.41;48.16;100638.72;10344262;28;20156;-63
2021/03/08 16:14:04;;;;;;;14.48;12.13;;;;;;;8.23;48.50;100642.59;10343906;28;20100;-66
2021/03/08 16:19:05;;;;;;;14.77;11.77;;;;;;;7.90;48.96;100633.19;10343050;28;20145;-65
2021/03/08 16:24:07;;;;;;;13.13;11.85;;;;;;;8.06;48.82;100646.28;10343082;28;20063;-64
2021/03/08 16:29:08;;;;;;;15.65;12.00;;;;;;;8.05;49.15;100640.16;10343567;28;20319;-64
2021/03/08 16:34:09;;;;;;;12.43;11.13;;;;;;;7.99;49.08;100618.47;10337510;28;20514;-64
2021/03/08 16:39:11;;;;;;;13.00;11.68;;;;;;;7.90;48.79;100627.88;10341783;28;20092;-65
2021/03/08 16:44:27;;;;;;;15.98;13.23;;;;;;;7.77;49.36;100630.44;10349620;28;20053;-64
2021/03/08 16:49:28;;;;;;;13.40;11.98;;;;;;;7.81;49.66;100634.59;10339972;28;20770;-65
2021/03/08 16:54:30;;;;;;;13.57;11.85;;;;;;;7.76;49.31;100624.31;10341009;28;20062;-63
2021/03/08 16:59:31;;;;;;;13.00;11.60;;;;;;;7.73;49.56;100632.44;10340872;28;20329;-64
2021/03/08 17:04:32;;;;;;;13.98;11.80;;;;;;;7.68;49.63;100631.84;10341234;28;20141;-63
2021/03/08 17:09:34;;;;;;;14.63;11.75;;;;;;;7.54;49.45;100621.28;10338990;28;20066;-67
2021/03/08 17:14:49;;;;;;;12.95;11.43;;;;;;;7.63;49.49;100631.31;10320763;28;20077;-65
2021/03/08 17:19:50;;;;;;;17.50;11.07;;;;;;;7.69;49.53;100635.38;10329622;28;20053;-66
2021/03/08 17:24:52;;;;;;;13.52;11.63;;;;;;;7.68;49.87;100637.16;10331944;28;20101;-65
2021/03/08 17:29:53;;;;;;;14.70;11.57;;;;;;;7.50;49.82;100633.84;10336469;28;20137;-65
2021/03/08 17:34:55;;;;;;;15.48;11.50;;;;;;;7.57;50.21;100645.78;10336186;28;20129;-65
2021/03/08 17:39:56;;;;;;;15.75;12.05;;;;;;;7.41;50.32;100635.25;10343942;28;20515;-65
2021/03/08 17:45:17;;;;;;;15.80;12.68;;;;;;;7.54;50.24;100653.06;10340827;28;20061;-65
2021/03/08 17:50:19;;;;;;;14.32;12.10;;;;;;;7.57;50.41;100655.53;10344455;28;20463;-66
2021/03/08 17:55:21;;;;;;;16.10;14.40;;;;;;;7.55;50.29;100649.47;10343713;28;20439;-67
2021/03/08 18:00:23;;;;;;;15.93;13.00;;;;;;;7.57;50.21;100642.28;10345232;28;20050;-66
2021/03/08 18:05:24;;;;;;;18.17;13.68;;;;;;;7.55;49.91;100652.09;10346463;28;20543;-64
2021/03/08 18:10:25;;;;;;;16.05;13.07;;;;;;;7.46;50.50;100642.09;10346275;28;20054;-65
2021/03/08 18:15:39;;;;;;;16.52;13.02;;;;;;;7.36;50.51;100647.94;10341599;28;20065;-67
2021/03/08 18:20:41;;;;;;;16.35;13.15;;;;;;;7.38;50.43;100639.91;10342683;28;20145;-64
2021/03/08 18:25:42;;;;;;;16.67;13.98;;;;;;;7.46;50.33;100642.97;10339376;28;20085;-67
2021/03/08 18:30:44;;;;;;;16.00;13.05;;;;;;;7.61;49.98;100643.78;10342504;28;20105;-66
2021/03/08 18:35:45;;;;;;;14.70;12.05;;;;;;;7.78;49.55;100651.53;10342761;28;20095;-67
2021/03/08 18:40:46;;;;;;;16.83;13.02;;;;;;;7.91;49.53;100661.38;10343841;28;20127;-64
2021/03/08 18:46:00;;;;;;;17.83;13.90;;;;;;;7.81;49.56;100662.88;10344949;28;20056;-65
2021/03/08 18:51:02;;;;;;;15.20;13.70;;;;;;;7.69;49.66;100646.81;10343219;28;20137;-68
2021/03/08 18:56:04;;;;;;;16.25;13.35;;;;;;;7.66;50.31;100660.25;10342769;28;20062;-67
2021/03/08 19:01:05;;;;;;;15.63;13.85;;;;;;;7.66;50.23;100664.72;10342785;28;20056;-64
2021/03/08 19:06:07;;;;;;;17.50;15.23;;;;;;;7.61;50.77;100652.59;10343896;28;20050;-66
2021/03/08 19:11:08;;;;;;;20.65;16.23;;;;;;;7.34;51.79;100655.16;10343797;28;20042;-63
2021/03/08 19:16:22;;;;;;;19.40;15.30;;;;;;;7.42;51.53;100657.31;10342515;28;20049;-65
2021/03/08 19:21:24;;;;;;;18.17;14.73;;;;;;;7.51;50.87;100661.22;10337226;28;20511;-66
2021/03/08 19:26:25;;;;;;;18.52;15.25;;;;;;;7.49;51.15;100655.13;10343200;28;20065;-65
2021/03/08 19:31:26;;;;;;;18.75;14.80;;;;;;;7.29;51.73;100649.25;10338794;28;20056;-66
2021/03/08 19:36:31;;;;;;;16.98;14.50;;;;;;;7.35;51.97;100658.63;10343744;28;20119;-66
2021/03/08 19:41:34;;;;;;;16.92;14.52;;;;;;;7.24;52.18;100648.69;10339670;28;20520;-68
2021/03/08 19:46:45;;;;;;;15.80;13.40;;;;;;;7.23;52.31;100652.28;10340966;28;20057;-67
2021/03/08 19:51:46;;;;;;;21.88;18.13;;;;;;;7.10;52.71;100646.00;10341313;28;20439;-62
2021/03/08 19:56:48;;;;;;;16.70;13.23;;;;;;;7.15;52.59;100651.91;10341408;28;20125;-67
2021/03/08 20:01:49;;;;;;;16.65;14.57;;;;;;;7.06;53.06;100651.50;10346345;28;20129;-64
2021/03/08 20:06:51;;;;;;;18.50;14.95;;;;;;;7.00;53.24;100651.00;10353285;28;20085;-63
2021/03/08 20:11:52;;;;;;;19.77;15.82;;;;;;;6.86;53.71;100639.44;10337644;28;20185;-65
2021/03/08 20:17:06;;;;;;;15.63;13.70;;;;;;;6.88;53.76;100631.41;10338972;28;20117;-65
2021/03/08 20:22:08;;;;;;;16.85;13.20;;;;;;;6.93;53.90;100639.09;10338221;28;20049;-66
2021/03/08 20:27:10;;;;;;;18.65;14.57;;;;;;;6.93;54.05;100639.09;10335323;28;21281;-65
2021/03/08 20:32:11;;;;;;;18.42;15.35;;;;;;;6.89;54.34;100641.91;10340753;28;20141;-65
2021/03/08 20:37:13;;;;;;;17.80;14.18;;;;;;;6.81;54.75;100624.78;10338546;28;20041;-66
2021/03/08 20:42:22;;;;;;;17.40;15.55;;;;;;;6.83;54.50;100634.34;10331228;28;20053;-66
2021/03/08 20:47:30;;;;;;;20.17;15.98;;;;;;;6.77;54.76;100631.19;10253450;28;20146;-68
2021/03/08 20:52:32;;;;;;;17.73;15.68;;;;;;;6.77;55.34;100639.13;10271301;28;20059;-67
2021/03/08 20:57:33;;;;;;;16.58;14.90;;;;;;;6.83;54.81;100638.75;10261092;28;20082;-69
2021/03/08 21:02:36;;;;;;;15.82;13.93;;;;;;;6.86;54.48;100628.00;10261057;28;20043;-68
2021/03/08 21:07:39;;;;;;;19.33;15.77;;;;;;;6.83;54.69;100629.03;10278688;28;20470;-68
2021/03/08 21:12:41;;;;;;;20.52;16.98;;;;;;;6.90;54.53;100629.53;10278690;28;20050;-68
2021/03/08 21:17:51;;;;;;;16.52;14.73;;;;;;;7.00;54.13;100630.69;10269463;28;20097;-67
2021/03/08 21:22:53;;;;;;;18.45;15.55;;;;;;;7.00;54.26;100629.84;10271450;28;20050;-67
2021/03/08 21:27:55;;;;;;;20.15;16.80;;;;;;;6.90;54.25;100632.16;10264233;28;20058;-67
2021/03/08 21:32:56;;;;;;;18.48;14.80;;;;;;;6.92;54.59;100643.53;10275046;28;20113;-67
2021/03/08 21:37:58;;;;;;;18.33;15.55;;;;;;;6.99;54.39;100649.31;10273364;28;20138;-67
2021/03/08 21:42:59;;;;;;;20.17;16.00;;;;;;;6.88;54.59;100642.00;10280948;28;20101;-68
2021/03/08 21:48:14;;;;;;;18.65;15.90;;;;;;;6.95;54.30;100638.06;10270401;28;20043;-68
2021/03/08 21:53:16;;;;;;;20.10;15.43;;;;;;;6.86;54.59;100628.88;10254521;28;20053;-68
2021/03/08 21:58:18;;;;;;;19.15;16.73;;;;;;;6.88;54.71;100634.06;10270218;28;20145;-68
2021/03/08 22:03:19;;;;;;;23.85;17.33;;;;;;;6.70;55.39;100628.91;10264195;28;20070;-69
2021/03/08 22:08:20;;;;;;;20.17;16.90;;;;;;;6.55;55.86;100629.78;10267709;28;20070;-67
2021/03/08 22:13:22;;;;;;;19.77;17.65;;;;;;;6.53;56.21;100613.16;10246648;28;20051;-67
2021/03/08 22:18:39;;;;;;;22.73;19.17;;;;;;;6.64;56.15;100623.97;10268571;28;20079;-68
2021/03/08 22:23:40;;;;;;;20.08;17.30;;;;;;;6.68;55.99;100619.34;10281047;28;20058;-68
2021/03/08 22:28:42;;;;;;;22.05;18.23;;;;;;;6.68;55.95;100612.28;10281158;28;20064;-69
2021/03/08 22:33:43;;;;;;;20.30;18.13;;;;;;;6.65;55.94;100601.88;10271904;28;20133;-67
2021/03/08 22:38:44;;;;;;;23.55;19.20;;;;;;;6.62;56.02;100599.41;10262958;28;20422;-67
2021/03/08 22:43:46;;;;;;;20.88;17.92;;;;;;;6.62;55.94;100602.06;10283851;28;20074;-68
2021/03/08 22:49:01;;;;;;;22.55;18.60;;;;;;;6.60;55.88;100598.63;10283413;28;20042;-67
2021/03/08 22:54:02;;;;;;;20.30;17.00;;;;;;;6.56;55.19;100589.19;10270539;28;20100;-68
2021/03/08 22:59:03;;;;;;;19.88;16.73;;;;;;;6.49;55.34;100587.84;10283311;28;20050;-68
2021/03/08 23:04:05;;;;;;;21.25;18.52;;;;;;;6.51;55.06;100593.88;10270863;28;20130;-68
2021/03/08 23:09:08;;;;;;;22.15;17.95;;;;;;;6.49;55.86;100591.31;10276907;28;20074;-68